Weather History for Chipley, FL

Change the Weather History Date:

Thursday, January 31, 2013

  Actual Average (KMAI) Record (KMAI)
Temperature  
Mean Temperature 52 °F 52 °F  
Max Temperature 60 °F 63 °F 80 °F (2002)
Min Temperature 44 °F 41 °F 26 °F (2014)
Degree Days  
Heating Degree Days 13    
Month to date heating degree days  
Since 1 July heating degree days  
Cooling Degree Days 0    
Month to date cooling degree days  
Year to date cooling degree days  
Growing Degree Days 2 (Base 50)    
Moisture  
Dew Point 26 °F    
Average Humidity 39    
Maximum Humidity 57    
Minimum Humidity 21    
Precipitation  
Precipitation 0.00 in 0.21 in 0.98 in (1999)
Month to date precipitation 5.04  
Year to date precipitation 5.04  
Sea Level Pressure  
Sea Level Pressure 30.28 in    
Wind  
Wind Speed 5 mph (WNW)    
Max Wind Speed 12 mph    
Max Gust Speed 20 mph    
Visibility 10 miles    
Events      
T = Trace of Precipitation, MM = Missing Value Source: NWS Daily Summary

Daily Weather History Graph

Daily Weather History Graph

Search for Another Location

Airport:

Trip Planner

Search our weather history database for the weather conditions in past years. The results will help you decide how hot, cold, wet, or windy it might be!

Date:

Astronomy

Jan. 31, 2013 Rise Set
Actual Time 6:34 AM CST 5:17 PM CST
Civil Twilight 6:09 AM CST 5:43 PM CST
Nautical Twilight 5:40 AM CST 6:11 PM CST
Astronomical Twilight 5:11 AM CST 6:40 PM CST
Moon 9:54 PM CST (1/31) 8:56 AM CST (1/31)
Length of Visible Light 11h 34m
Length of Day
10h 43m
Waning Gibbous, 79% of the Moon is Illuminated
Jan 31
Waning Gibbous
Feb 3
Last Quarter
Feb 10
New
Feb 17
First Quarter
Feb 25
Full

Hourly Weather History & Observations

Time (CST) Temp. Windchill Dew Point Humidity Pressure Visibility Wind Dir Wind Speed Gust Speed Precip Events Conditions
12:15 AM 48.2 °F - 26.6 °F 43% 30.20 in 10.0 mi North 5.8 mph - N/A   Clear
12:35 AM 48.2 °F - 28.4 °F 46% 30.21 in 10.0 mi NNW 5.8 mph - N/A   Clear
12:55 AM 48.2 °F - 26.6 °F 43% 30.21 in 10.0 mi NNW 11.5 mph 19.6 mph N/A   Clear
1:15 AM 48.2 °F - 26.6 °F 43% 30.21 in 10.0 mi NNW 10.4 mph - N/A   Clear
1:35 AM 48.2 °F - 26.6 °F 43% 30.21 in 10.0 mi North 5.8 mph 17.3 mph N/A   Clear
1:55 AM 48.2 °F - 26.6 °F 43% 30.21 in 10.0 mi North 8.1 mph - N/A   Clear
2:15 AM 48.2 °F - 24.8 °F 40% 30.22 in 10.0 mi North 9.2 mph - N/A   Clear
2:35 AM 48.2 °F - 26.6 °F 43% 30.22 in 10.0 mi North 8.1 mph 16.1 mph N/A   Clear
2:55 AM 48.2 °F - 26.6 °F 43% 30.20 in 10.0 mi NNE 4.6 mph - N/A   Clear
3:15 AM 48.2 °F - 26.6 °F 43% 30.22 in 10.0 mi NNW 3.5 mph - N/A   Clear
3:35 AM 48.2 °F - 26.6 °F 43% 30.22 in 10.0 mi North 5.8 mph - N/A   Clear
3:55 AM 48.2 °F - 26.6 °F 43% 30.22 in 10.0 mi North 4.6 mph - N/A   Clear
4:15 AM 46.4 °F 44.3 °F 26.6 °F 46% 30.22 in 10.0 mi North 4.6 mph - N/A   Clear
4:35 AM 46.4 °F 45.2 °F 26.6 °F 46% 30.22 in 10.0 mi North 3.5 mph - N/A   Clear
4:55 AM 46.4 °F 44.3 °F 26.6 °F 46% 30.23 in 10.0 mi North 4.6 mph - N/A   Clear
5:15 AM 46.4 °F 45.2 °F 26.6 °F 46% 30.23 in 10.0 mi North 3.5 mph - N/A   Clear
5:35 AM 46.4 °F 43.5 °F 26.6 °F 46% 30.24 in 10.0 mi North 5.8 mph - N/A   Clear
5:55 AM 46.4 °F - 26.6 °F 46% 30.24 in 10.0 mi Calm Calm - N/A   Clear
6:15 AM 44.6 °F - 28.4 °F 53% 30.24 in 10.0 mi Calm Calm - N/A   Clear
6:35 AM 44.6 °F - 30.2 °F 57% 30.25 in 10.0 mi Calm Calm - N/A   Clear
6:55 AM 44.6 °F - 30.2 °F 57% 30.26 in 10.0 mi Calm Calm - N/A   Clear
7:15 AM 44.6 °F - 30.2 °F 57% 30.27 in 10.0 mi Calm Calm - N/A   Clear
7:35 AM 44.6 °F - 30.2 °F 57% 30.27 in 10.0 mi Calm Calm - N/A   Clear
7:55 AM 44.6 °F - 30.2 °F 57% 30.28 in 10.0 mi Calm Calm - N/A   Clear
8:15 AM 46.4 °F 45.2 °F 30.2 °F 53% 30.29 in 10.0 mi WSW 3.5 mph - N/A   Clear
8:35 AM 46.4 °F 43.5 °F 28.4 °F 50% 30.30 in 10.0 mi WNW 5.8 mph - N/A   Clear
8:55 AM 48.2 °F - 30.2 °F 50% 30.30 in 10.0 mi Calm Calm - N/A   Clear
9:15 AM 51.8 °F - 30.2 °F 44% 30.32 in 10.0 mi WNW 5.8 mph - N/A   Clear
9:35 AM 51.8 °F - 30.2 °F 44% 30.33 in 10.0 mi Calm Calm - N/A   Clear
9:55 AM 51.8 °F - 26.6 °F 38% 30.33 in 10.0 mi NW 4.6 mph - N/A   Clear
10:15 AM 53.6 °F - 26.6 °F 35% 30.33 in 10.0 mi Calm Calm - N/A   Clear
10:35 AM 55.4 °F - 26.6 °F 33% 30.32 in 10.0 mi WNW 4.6 mph - N/A   Clear
10:55 AM 55.4 °F - 23.0 °F 29% 30.32 in 10.0 mi North 3.5 mph - N/A   Clear
11:15 AM 55.4 °F - 23.0 °F 29% 30.32 in 10.0 mi North 3.5 mph - N/A   Clear
11:35 AM 55.4 °F - 21.2 °F 26% 30.31 in 10.0 mi Calm Calm - N/A   Clear
11:55 AM 57.2 °F - 21.2 °F 25% 30.31 in 10.0 mi Calm Calm - N/A   Clear
12:15 PM 57.2 °F - 19.4 °F 23% 30.30 in 10.0 mi NNW 5.8 mph - N/A   Clear
12:35 PM 57.2 °F - 19.4 °F 23% 30.29 in 10.0 mi NE 4.6 mph - N/A   Clear
12:55 PM 57.2 °F - 19.4 °F 23% 30.29 in 10.0 mi North 4.6 mph - N/A   Clear
1:15 PM 57.2 °F - 19.4 °F 23% 30.28 in 10.0 mi North 6.9 mph - N/A   Clear
1:35 PM 57.2 °F - 17.6 °F 21% 30.28 in 10.0 mi NW 5.8 mph - N/A   Clear
1:55 PM 57.2 °F - 19.4 °F 23% 30.28 in 10.0 mi NNW 4.6 mph - N/A   Clear
2:15 PM 59.0 °F - 19.4 °F 22% 30.28 in 10.0 mi WNW 5.8 mph - N/A   Clear
2:35 PM 59.0 °F - 21.2 °F 23% 30.28 in 10.0 mi Calm Calm - N/A   Clear
2:55 PM 60.8 °F - 21.2 °F 22% 30.28 in 10.0 mi NW 5.8 mph - N/A   Clear
3:15 PM 60.8 °F - 21.2 °F 22% 30.28 in 10.0 mi North 3.5 mph - N/A   Clear
3:35 PM 60.8 °F - 21.2 °F 22% 30.28 in 10.0 mi NW 5.8 mph - N/A   Clear
3:55 PM 59.0 °F - 21.2 °F 23% 30.27 in 10.0 mi Calm Calm - N/A   Clear
4:15 PM 60.8 °F - 21.2 °F 22% 30.28 in 10.0 mi SW 3.5 mph - N/A   Clear
4:35 PM 59.0 °F - 21.2 °F 23% 30.28 in 10.0 mi West 4.6 mph - N/A   Clear
4:55 PM 59.0 °F - 21.2 °F 23% 30.28 in 10.0 mi South 6.9 mph - N/A   Clear
5:15 PM 57.2 °F - 21.2 °F 25% 30.28 in 10.0 mi South 5.8 mph - N/A   Clear
5:35 PM 57.2 °F - 21.2 °F 25% 30.28 in 10.0 mi SSW 4.6 mph - N/A   Clear
5:55 PM 57.2 °F - 21.2 °F 25% 30.29 in 10.0 mi SSW 8.1 mph - N/A   Clear
6:15 PM 57.2 °F - 26.6 °F 31% 30.30 in 10.0 mi SSW 9.2 mph - N/A   Clear
6:35 PM 55.4 °F - 33.8 °F 44% 30.30 in 10.0 mi SSW 9.2 mph - N/A   Clear
6:55 PM 55.4 °F - 33.8 °F 44% 30.29 in 10.0 mi SSW 8.1 mph - N/A   Clear
7:15 PM 55.4 °F - 33.8 °F 44% 30.31 in 10.0 mi SSW 6.9 mph - N/A   Clear
7:35 PM 53.6 °F - 33.8 °F 47% 30.32 in 10.0 mi SSW 6.9 mph - N/A   Clear
7:55 PM 53.6 °F - 33.8 °F 47% 30.32 in 10.0 mi SSW 8.1 mph - N/A   Clear
8:15 PM 53.6 °F - 33.8 °F 47% 30.31 in 10.0 mi SSW 6.9 mph - N/A   Clear
8:35 PM 53.6 °F - 33.8 °F 47% 30.32 in 10.0 mi SSW 6.9 mph - N/A   Clear
8:55 PM 51.8 °F - 32.0 °F 47% 30.33 in 10.0 mi SSW 6.9 mph - N/A   Clear
9:15 PM 51.8 °F - 30.2 °F 44% 30.33 in 10.0 mi SSW 4.6 mph - N/A   Clear
9:35 PM 51.8 °F - 30.2 °F 44% 30.33 in 10.0 mi SW 3.5 mph - N/A   Clear
9:55 PM 51.8 °F - 30.2 °F 44% 30.35 in 10.0 mi SW 4.6 mph - N/A   Clear
10:15 PM 51.8 °F - 30.2 °F 44% 30.36 in 10.0 mi Calm Calm - N/A   Clear
10:35 PM 51.8 °F - 30.2 °F 44% 30.36 in 10.0 mi SSW 3.5 mph - N/A   Clear
10:55 PM 50.0 °F - 30.2 °F 47% 30.36 in 10.0 mi SW 3.5 mph - N/A   Clear
11:15 PM 50.0 °F - 30.2 °F 47% 30.36 in 10.0 mi WSW 4.6 mph - N/A   Clear
11:35 PM 50.0 °F - 30.2 °F 47% 30.36 in 10.0 mi WSW 4.6 mph - N/A   Clear